Time;durP1;ratioP1;P1;durP2;ratioP2;P2;SDS_P1;SDS_P2;PMS_P1;PMS_P2;Temp;Humidity;BMP_temperature;BMP_pressure;BME280_temperature;BME280_humidity;BME280_pressure;Samples;Min_cycle;Max_cycle;Signal;HPM_P1;HPM_P2
2021/06/11 00:00:53;;;;;;;5.20;4.70;;;;;;;19.49;62.42;100670.75;5045931;28;20504;-80
2021/06/11 00:03:20;;;;;;;6.03;5.33;;;;;;;19.46;62.15;100673.84;5060261;28;20469;-80
2021/06/11 00:05:46;;;;;;;5.40;4.90;;;;;;;19.19;62.47;100668.06;5044539;28;20587;-79
2021/06/11 00:08:12;;;;;;;6.30;5.67;;;;;;;19.01;63.41;100673.88;5061080;28;20461;-79
2021/06/11 00:10:38;;;;;;;5.60;4.90;;;;;;;19.07;63.54;100667.69;5060930;28;21027;-79
2021/06/11 00:13:06;;;;;;;5.53;4.93;;;;;;;19.26;63.02;100671.72;5061434;28;20472;-78
2021/06/11 00:15:33;;;;;;;5.73;5.23;;;;;;;19.17;63.55;100670.97;5054525;28;20469;-78
2021/06/11 00:17:59;;;;;;;6.57;5.97;;;;;;;19.02;63.49;100674.72;5060342;28;20496;-78
2021/06/11 00:20:26;;;;;;;5.97;5.47;;;;;;;18.91;63.72;100667.88;5040943;28;20473;-78
2021/06/11 00:22:52;;;;;;;5.43;4.80;;;;;;;18.95;62.99;100677.31;5041890;28;20485;-78
2021/06/11 00:25:20;;;;;;;7.10;5.33;;;;;;;18.90;62.61;100672.44;5044961;28;20477;-78
2021/06/11 00:27:47;;;;;;;6.53;5.30;;;;;;;18.85;63.10;100677.56;5060403;28;20872;-78
2021/06/11 00:30:19;;;;;;;6.57;5.50;;;;;;;18.83;63.87;100676.91;5059558;28;20549;-78
2021/06/11 00:32:45;;;;;;;5.73;5.20;;;;;;;18.86;63.15;100670.31;5045400;28;20465;-78
2021/06/11 00:35:12;;;;;;;5.63;5.10;;;;;;;18.55;63.76;100666.63;5060715;28;20453;-79
2021/06/11 00:37:39;;;;;;;6.83;4.97;;;;;;;18.27;64.56;100666.38;5054759;28;20476;-78
2021/06/11 00:40:06;;;;;;;5.60;5.10;;;;;;;18.22;64.79;100672.31;5060384;28;20445;-78
2021/06/11 00:42:33;;;;;;;8.60;5.30;;;;;;;18.10;65.07;100673.75;5060979;28;20465;-79
2021/06/11 00:44:59;;;;;;;6.40;5.80;;;;;;;18.03;65.70;100676.34;5060609;28;20453;-79
2021/06/11 00:47:27;;;;;;;6.43;5.83;;;;;;;18.16;65.50;100667.66;5059656;28;20473;-79
2021/06/11 00:49:53;;;;;;;7.20;5.10;;;;;;;18.14;65.54;100664.28;5054541;28;20915;-79
2021/06/11 00:52:19;;;;;;;6.10;5.60;;;;;;;18.25;65.14;100660.31;5061068;28;20615;-78
2021/06/11 00:54:46;;;;;;;5.70;5.10;;;;;;;18.21;65.22;100662.53;5060964;28;20924;-79
2021/06/11 00:57:12;;;;;;;6.63;6.00;;;;;;;18.22;65.56;100663.38;5061556;28;20497;-80
2021/06/11 00:59:40;;;;;;;5.23;4.70;;;;;;;18.31;65.44;100667.69;5042469;28;20962;-80
2021/06/11 01:02:06;;;;;;;5.40;4.90;;;;;;;18.25;65.17;100657.59;5041777;28;20478;-80
2021/06/11 01:04:34;;;;;;;6.80;5.80;;;;;;;18.29;65.45;100658.91;5044318;28;20908;-78
2021/06/11 01:07:01;;;;;;;5.90;4.50;;;;;;;18.43;64.82;100659.97;5060864;28;20504;-80
2021/06/11 01:09:28;;;;;;;5.53;5.03;;;;;;;18.40;64.50;100663.91;5061931;28;20472;-80
2021/06/11 01:11:55;;;;;;;6.20;5.70;;;;;;;18.29;65.33;100658.91;5055986;28;20568;-80
2021/06/11 01:14:21;;;;;;;7.90;5.67;;;;;;;18.27;65.44;100660.97;5041624;28;20466;-80
2021/06/11 01:16:48;;;;;;;7.00;6.37;;;;;;;18.18;65.99;100662.06;5041787;28;20502;-80
2021/06/11 01:19:14;;;;;;;12.20;6.57;;;;;;;18.24;65.69;100653.19;5042880;28;20462;-80
2021/06/11 01:21:47;;;;;;;7.00;6.03;;;;;;;18.10;66.00;100651.28;5039587;28;20556;-80
2021/06/11 01:24:15;;;;;;;6.03;5.50;;;;;;;17.97;66.68;100660.84;5049632;28;20461;-80
2021/06/11 01:26:44;;;;;;;10.13;6.30;;;;;;;17.97;66.41;100654.59;5060120;28;20614;-80
2021/06/11 01:29:14;;;;;;;7.07;6.47;;;;;;;18.12;66.16;100651.94;5058780;28;20441;-80
2021/06/11 01:31:42;;;;;;;7.47;6.70;;;;;;;18.04;66.35;100658.25;5060101;28;21015;-80
2021/06/11 01:34:14;;;;;;;7.53;6.00;;;;;;;18.24;65.62;100664.03;5049033;28;20493;-80
2021/06/11 01:36:43;;;;;;;6.33;5.70;;;;;;;18.14;65.64;100661.56;5039600;28;20478;-80
2021/06/11 01:39:10;;;;;;;6.90;6.00;;;;;;;18.01;65.91;100656.75;5038689;28;20477;-80
2021/06/11 01:41:37;;;;;;;10.43;6.43;;;;;;;18.00;65.62;100656.91;5040005;28;20554;-80
2021/06/11 01:44:08;;;;;;;7.10;6.17;;;;;;;18.09;65.58;100649.59;5050543;28;20468;-80
2021/06/11 01:46:34;;;;;;;7.20;6.50;;;;;;;18.09;65.69;100652.28;5059346;28;20551;-80
2021/06/11 01:49:01;;;;;;;7.07;6.40;;;;;;;18.19;65.60;100658.31;5051909;28;20518;-79
2021/06/11 01:51:28;;;;;;;6.83;6.23;;;;;;;18.23;65.15;100648.81;5051899;28;20501;-80
2021/06/11 01:53:55;;;;;;;7.50;6.43;;;;;;;18.09;65.04;100642.31;5051109;28;20469;-80
2021/06/11 01:56:21;;;;;;;7.50;5.67;;;;;;;18.02;65.28;100646.78;5056991;28;21001;-80
2021/06/11 01:58:47;;;;;;;6.87;5.60;;;;;;;17.61;66.87;100645.13;5047811;28;20450;-80
2021/06/11 02:01:16;;;;;;;7.57;6.17;;;;;;;17.56;66.96;100649.38;5047793;28;21441;-80
2021/06/11 02:03:45;;;;;;;6.50;5.90;;;;;;;17.50;68.02;100650.94;5055636;28;20486;-80
2021/06/11 02:06:13;;;;;;;6.83;6.13;;;;;;;17.54;67.54;100646.00;5046152;28;20488;-79
2021/06/11 02:08:39;;;;;;;8.23;6.20;;;;;;;17.40;67.99;100648.44;5063268;28;20448;-80
2021/06/11 02:11:05;;;;;;;8.73;6.00;;;;;;;17.29;68.13;100643.38;5060155;28;20485;-80
2021/06/11 02:13:32;;;;;;;7.30;6.60;;;;;;;17.39;68.18;100648.59;5043588;28;20486;-80
2021/06/11 02:15:58;;;;;;;6.30;5.80;;;;;;;17.48;67.36;100651.09;5043108;28;20504;-79
2021/06/11 02:18:26;;;;;;;6.53;5.93;;;;;;;17.49;67.53;100639.25;5048798;28;20497;-80
2021/06/11 02:20:52;;;;;;;7.47;6.47;;;;;;;17.40;67.73;100645.72;5046876;28;20481;-80
2021/06/11 02:23:19;;;;;;;8.80;6.30;;;;;;;17.47;67.60;100635.88;5056929;28;20465;-79
2021/06/11 02:25:46;;;;;;;7.20;6.50;;;;;;;17.41;67.84;100638.44;5042687;28;20508;-80
2021/06/11 02:28:16;;;;;;;7.87;6.33;;;;;;;17.35;67.90;100636.47;5049167;28;20442;-79
2021/06/11 02:30:42;;;;;;;7.80;6.40;;;;;;;17.36;68.01;100643.53;5061901;28;20844;-80
2021/06/11 02:33:09;;;;;;;6.90;6.03;;;;;;;17.36;67.98;100640.84;5060286;28;20454;-80
2021/06/11 02:35:36;;;;;;;6.70;6.10;;;;;;;17.47;67.83;100635.88;5042628;28;20465;-81
2021/06/11 02:38:02;;;;;;;7.13;6.40;;;;;;;17.42;67.91;100638.28;5061444;28;20448;-80
2021/06/11 02:40:29;;;;;;;8.27;6.60;;;;;;;17.18;69.09;100639.22;5062718;28;20481;-80
2021/06/11 02:42:59;;;;;;;7.47;6.67;;;;;;;17.22;69.53;100640.56;5044738;28;20449;-80
2021/06/11 02:45:28;;;;;;;7.53;6.90;;;;;;;17.23;68.97;100642.25;5042110;28;20498;-80
2021/06/11 02:47:58;;;;;;;7.63;6.83;;;;;;;17.38;68.90;100641.53;5049200;28;21444;-79
2021/06/11 02:50:29;;;;;;;7.60;6.90;;;;;;;17.33;68.37;100633.94;5062727;28;20526;-80
2021/06/11 02:53:01;;;;;;;7.80;6.80;;;;;;;17.36;68.74;100638.13;5060886;28;20465;-80
2021/06/11 02:55:28;;;;;;;7.23;6.53;;;;;;;17.32;68.70;100632.25;5061629;28;20472;-80
2021/06/11 02:57:58;;;;;;;8.30;6.53;;;;;;;17.39;68.50;100640.50;5062829;28;20460;-80
2021/06/11 03:00:26;;;;;;;8.50;7.03;;;;;;;17.41;68.23;100638.44;5056773;28;20478;-79
2021/06/11 03:02:54;;;;;;;9.13;6.30;;;;;;;17.25;68.80;100637.50;5042649;28;20454;-79
2021/06/11 03:05:22;;;;;;;7.00;6.30;;;;;;;17.22;69.29;100628.91;5044298;28;20439;-80
2021/06/11 03:07:49;;;;;;;7.53;6.80;;;;;;;17.15;69.62;100631.47;5043971;28;20552;-80
2021/06/11 03:10:17;;;;;;;7.80;7.00;;;;;;;17.14;69.40;100632.50;5045576;28;20469;-81
2021/06/11 03:12:44;;;;;;;9.20;6.33;;;;;;;17.22;69.06;100629.75;5046522;28;20536;-81
2021/06/11 03:15:11;;;;;;;7.70;6.90;;;;;;;17.26;68.70;100630.25;5041801;28;20434;-81
2021/06/11 03:17:43;;;;;;;7.63;6.93;;;;;;;17.31;68.49;100642.22;5045522;28;20445;-81
2021/06/11 03:20:13;;;;;;;7.87;7.10;;;;;;;17.25;68.75;100628.56;5051919;28;20454;-80
2021/06/11 03:22:44;;;;;;;7.40;6.70;;;;;;;17.33;68.47;100630.41;5060747;28;20490;-80
2021/06/11 03:25:16;;;;;;;9.77;7.17;;;;;;;17.40;67.89;100636.78;5049704;28;20442;-80
2021/06/11 03:27:46;;;;;;;8.80;7.90;;;;;;;17.48;67.36;100632.19;5062601;28;20465;-81
2021/06/11 03:30:15;;;;;;;10.20;8.30;;;;;;;17.51;67.09;100630.97;5059381;28;20476;-80
2021/06/11 03:32:46;;;;;;;8.87;7.97;;;;;;;17.66;66.78;100633.78;5042026;28;20461;-80
2021/06/11 03:35:17;;;;;;;9.60;8.60;;;;;;;17.87;66.33;100635.88;5054115;28;20477;-80
2021/06/11 03:37:46;;;;;;;8.63;7.13;;;;;;;18.32;65.08;100636.06;5059790;28;20918;-81
2021/06/11 03:40:16;;;;;;;8.97;8.07;;;;;;;18.44;63.92;100630.03;5055292;28;20553;-81
2021/06/11 03:42:44;;;;;;;9.20;7.73;;;;;;;18.93;61.85;100631.44;5042789;28;20458;-80
2021/06/11 03:45:11;;;;;;;7.73;6.83;;;;;;;18.98;61.77;100625.47;5041235;28;20521;-81
2021/06/11 03:47:38;;;;;;;8.30;7.50;;;;;;;19.53;60.23;100640.38;5051453;28;20517;-81
2021/06/11 03:50:06;;;;;;;9.00;7.07;;;;;;;20.12;58.09;100633.97;5052387;28;20489;-78
2021/06/11 03:52:33;;;;;;;9.83;7.50;;;;;;;20.61;56.31;100637.72;5059851;28;20492;-79
2021/06/11 03:55:02;;;;;;;8.90;7.00;;;;;;;21.38;54.82;100627.75;5041197;28;20582;-79
2021/06/11 03:57:28;;;;;;;9.00;6.97;;;;;;;21.69;53.63;100625.59;5041746;28;20490;-79
2021/06/11 03:59:57;;;;;;;10.03;6.50;;;;;;;21.50;53.75;100627.22;5061238;28;20457;-79
2021/06/11 04:02:23;;;;;;;6.90;6.20;;;;;;;21.34;54.33;100628.38;5060603;28;20474;-79
2021/06/11 04:04:49;;;;;;;7.00;6.30;;;;;;;21.18;54.66;100626.81;5059332;28;20441;-80
2021/06/11 04:07:18;;;;;;;8.10;6.70;;;;;;;21.86;52.67;100621.47;5060576;28;20512;-79
2021/06/11 04:09:47;;;;;;;7.60;6.90;;;;;;;21.94;52.39;100621.28;5050185;28;21038;-79
2021/06/11 04:12:20;;;;;;;8.50;6.20;;;;;;;22.36;51.30;100621.16;5059423;28;21092;-79
2021/06/11 04:14:49;;;;;;;8.10;6.20;;;;;;;22.73;50.32;100618.81;5061099;28;20978;-79
2021/06/11 04:17:25;;;;;;;7.23;6.53;;;;;;;22.91;49.84;100620.88;5049101;28;20481;-79
2021/06/11 04:19:54;;;;;;;8.33;6.43;;;;;;;23.36;48.97;100617.41;5058716;28;20496;-79
2021/06/11 04:22:24;;;;;;;12.07;7.90;;;;;;;23.90;47.47;100620.75;5055185;28;21003;-79
2021/06/11 04:24:51;;;;;;;9.00;7.27;;;;;;;24.27;45.82;100621.75;5042190;28;20529;-80
2021/06/11 04:27:18;;;;;;;6.50;5.90;;;;;;;25.01;43.99;100616.44;5059769;28;20535;-79
2021/06/11 04:29:46;;;;;;;6.80;6.20;;;;;;;25.84;42.23;100622.41;5077457;28;20480;-80
2021/06/11 04:32:12;;;;;;;6.90;6.20;;;;;;;26.56;40.60;100614.13;5080050;28;20571;-79
2021/06/11 04:34:40;;;;;;;7.13;6.00;;;;;;;27.12;39.22;100611.00;5080781;28;20441;-79
2021/06/11 04:37:06;;;;;;;7.57;6.50;;;;;;;27.14;38.56;100619.84;5078645;28;20547;-78
2021/06/11 04:39:32;;;;;;;10.00;5.90;;;;;;;27.20;37.73;100616.09;5080132;28;20468;-82
2021/06/11 04:41:58;;;;;;;6.30;5.80;;;;;;;27.36;37.02;100617.28;5079292;28;20552;-82
2021/06/11 04:44:24;;;;;;;7.00;5.77;;;;;;;27.65;36.80;100607.16;5081972;28;20483;-82
2021/06/11 04:46:51;;;;;;;8.33;6.47;;;;;;;26.48;39.25;100606.25;5079870;28;20542;-80
2021/06/11 04:49:18;;;;;;;7.60;6.80;;;;;;;26.67;39.14;100604.25;5080665;28;20456;-80
2021/06/11 04:51:45;;;;;;;7.33;5.67;;;;;;;25.55;40.88;100617.53;5080137;28;20515;-80
2021/06/11 04:54:11;;;;;;;11.77;6.20;;;;;;;24.47;43.18;100618.84;5081075;28;20506;-81
2021/06/11 04:56:37;;;;;;;7.40;5.90;;;;;;;24.16;43.24;100615.09;5081569;28;20484;-85
2021/06/11 04:59:03;;;;;;;6.20;5.60;;;;;;;23.94;43.51;100611.03;5082199;28;20456;-81
2021/06/11 05:01:30;;;;;;;10.80;6.13;;;;;;;25.19;41.70;100605.50;5080822;28;20476;-84
2021/06/11 05:03:56;;;;;;;7.30;5.40;;;;;;;27.01;37.26;100610.78;5082173;28;20444;-83
2021/06/11 05:06:22;;;;;;;5.57;4.93;;;;;;;28.00;35.89;100606.19;5081439;28;20590;-83
2021/06/11 05:08:50;;;;;;;5.53;5.10;;;;;;;30.68;31.25;100599.31;5082278;28;20444;-82
2021/06/11 05:11:16;;;;;;;5.43;4.93;;;;;;;32.05;28.63;100608.47;5080640;28;20551;-81
2021/06/11 05:13:42;;;;;;;7.50;5.40;;;;;;;31.77;29.06;100605.06;5080871;28;20460;-80
2021/06/11 05:16:09;;;;;;;5.30;4.80;;;;;;;31.75;29.67;100604.50;5080534;28;20500;-80
2021/06/11 05:18:35;;;;;;;9.47;5.70;;;;;;;31.77;29.42;100599.53;5080763;28;20459;-80
2021/06/11 05:21:01;;;;;;;11.93;4.93;;;;;;;32.38;28.73;100598.75;5079560;28;20471;-80
2021/06/11 05:23:27;;;;;;;5.77;5.27;;;;;;;32.27;29.19;100599.88;5081391;28;20460;-79
2021/06/11 05:25:55;;;;;;;5.17;4.77;;;;;;;32.55;28.45;100604.00;5079700;28;20902;-80
2021/06/11 05:28:22;;;;;;;6.30;5.70;;;;;;;32.83;28.20;100608.13;5080778;28;20452;-80
2021/06/11 05:30:48;;;;;;;6.30;5.03;;;;;;;33.17;27.70;100604.69;5079783;28;20468;-80
2021/06/11 05:33:14;;;;;;;5.90;5.20;;;;;;;33.58;26.96;100617.56;5080489;28;20516;-80
2021/06/11 05:35:41;;;;;;;6.03;4.50;;;;;;;34.59;25.86;100613.50;5080053;28;20492;-81
2021/06/11 05:38:07;;;;;;;5.20;4.80;;;;;;;34.51;25.72;100610.25;5076221;28;20503;-80
2021/06/11 05:40:34;;;;;;;6.70;6.10;;;;;;;33.81;26.98;100626.31;5072627;28;20525;-81
2021/06/11 05:43:02;;;;;;;5.03;4.53;;;;;;;33.93;26.84;100616.50;5071557;28;20472;-84
2021/06/11 05:45:30;;;;;;;5.47;4.97;;;;;;;34.37;26.24;100612.00;5070881;28;20491;-83
2021/06/11 05:47:56;;;;;;;6.20;5.53;;;;;;;35.37;24.89;100611.53;5082881;28;20484;-84
2021/06/11 05:50:22;;;;;;;10.37;9.57;;;;;;;32.09;28.49;100615.09;5082904;28;20467;-83
2021/06/11 05:52:49;;;;;;;11.90;10.37;;;;;;;30.92;30.49;100616.31;5084630;28;20455;-84
2021/06/11 05:55:15;;;;;;;12.57;11.33;;;;;;;28.22;34.78;100609.03;5082799;28;20436;-83
2021/06/11 05:57:41;;;;;;;11.93;10.90;;;;;;;26.75;37.88;100620.34;5079512;28;20465;-84
2021/06/11 06:00:10;;;;;;;13.60;12.30;;;;;;;27.35;37.56;100608.22;5078379;28;20492;-83
2021/06/11 06:02:36;;;;;;;14.50;13.13;;;;;;;27.08;37.36;100607.06;5077292;28;20455;-82
2021/06/11 06:05:03;;;;;;;14.27;12.87;;;;;;;28.38;35.27;100617.53;5064704;28;20506;-83
2021/06/11 06:07:29;;;;;;;12.77;11.57;;;;;;;28.53;34.84;100615.03;5058721;28;20477;-81
2021/06/11 06:09:56;;;;;;;13.50;12.30;;;;;;;29.40;33.76;100620.97;5062602;28;20510;-83
2021/06/11 06:12:23;;;;;;;13.27;11.87;;;;;;;29.76;32.79;100616.72;5056388;28;20512;-82
2021/06/11 06:14:49;;;;;;;12.83;11.57;;;;;;;30.53;31.90;100619.34;5063337;28;20437;-83
2021/06/11 06:17:16;;;;;;;13.43;12.20;;;;;;;30.15;32.14;100613.78;5062456;28;20496;-83
2021/06/11 06:19:44;;;;;;;12.20;11.20;;;;;;;32.14;29.24;100620.63;5063654;28;20536;-83
2021/06/11 06:22:10;;;;;;;13.33;11.87;;;;;;;30.92;31.11;100616.31;5063044;28;20488;-83
2021/06/11 06:24:36;;;;;;;13.40;12.10;;;;;;;31.89;29.20;100616.69;5063122;28;20481;-84
2021/06/11 06:27:03;;;;;;;12.80;11.50;;;;;;;32.17;28.54;100624.75;5063059;28;21071;-83
2021/06/11 06:29:29;;;;;;;13.13;11.80;;;;;;;31.46;29.59;100627.06;5062903;28;20460;-80
2021/06/11 06:31:55;;;;;;;13.03;11.83;;;;;;;30.98;30.44;100624.34;5062318;28;20500;-81
2021/06/11 06:34:25;;;;;;;12.77;11.57;;;;;;;33.18;27.47;100627.72;5063909;28;20457;-83
2021/06/11 06:36:51;;;;;;;11.43;9.97;;;;;;;33.43;26.97;100629.53;5062543;28;20473;-82
2021/06/11 06:39:17;;;;;;;14.07;10.83;;;;;;;34.63;25.99;100626.47;5061599;28;20484;-83
2021/06/11 06:41:43;;;;;;;9.90;8.33;;;;;;;35.21;26.23;100625.63;5067434;28;20833;-84
2021/06/11 06:44:11;;;;;;;10.00;9.00;;;;;;;36.87;23.56;100619.97;5075902;28;20457;-84
2021/06/11 06:46:38;;;;;;;9.37;8.67;;;;;;;36.45;23.85;100627.44;5062126;28;20488;-83
2021/06/11 06:49:04;;;;;;;7.90;7.20;;;;;;;37.93;23.40;100630.31;5077100;28;20472;-84
2021/06/11 06:51:35;;;;;;;14.37;8.07;;;;;;;37.90;22.43;100628.16;5062903;28;20502;-83
2021/06/11 06:54:02;;;;;;;9.27;8.37;;;;;;;38.91;21.52;100634.25;5060330;28;20441;-83
2021/06/11 06:56:29;;;;;;;8.53;7.73;;;;;;;39.06;21.13;100622.66;5061827;28;20477;-82
2021/06/11 06:58:55;;;;;;;8.90;8.10;;;;;;;38.78;20.65;100627.59;5063364;28;20446;-84
2021/06/11 07:01:24;;;;;;;11.17;10.07;;;;;;;35.64;23.80;100631.19;5078023;28;20510;-83
2021/06/11 07:03:50;;;;;;;11.40;10.30;;;;;;;34.99;24.49;100630.88;5062275;28;20552;-84
2021/06/11 07:06:16;;;;;;;10.10;9.30;;;;;;;35.04;24.31;100628.03;5062752;28;20482;-82
2021/06/11 07:08:44;;;;;;;11.37;10.23;;;;;;;36.18;23.63;100622.59;5060956;28;20444;-83
2021/06/11 07:11:10;;;;;;;11.60;10.40;;;;;;;34.60;25.38;100637.34;5061264;28;20481;-83
2021/06/11 07:13:36;;;;;;;11.60;10.40;;;;;;;35.51;24.48;100628.31;5062840;28;20457;-83
2021/06/11 07:16:02;;;;;;;13.20;11.90;;;;;;;34.25;25.51;100631.00;5069685;28;20535;-83
2021/06/11 07:18:28;;;;;;;12.63;11.43;;;;;;;34.69;25.30;100621.72;5070690;28;20476;-83
2021/06/11 07:20:55;;;;;;;12.90;11.67;;;;;;;32.01;29.67;100618.38;5059297;28;20477;-81
2021/06/11 07:23:21;;;;;;;13.20;11.90;;;;;;;32.09;29.32;100626.97;5064179;28;20972;-82
2021/06/11 07:25:48;;;;;;;14.73;13.20;;;;;;;30.95;30.70;100626.81;5069570;28;20504;-82
2021/06/11 07:28:15;;;;;;;13.53;12.27;;;;;;;31.66;30.18;100633.78;5061395;28;20477;-83
2021/06/11 07:30:41;;;;;;;11.70;10.50;;;;;;;32.41;29.29;100638.88;5072920;28;20885;-83
2021/06/11 07:33:07;;;;;;;12.70;11.60;;;;;;;32.02;29.85;100634.69;5063962;28;20481;-83
2021/06/11 07:35:33;;;;;;;14.20;12.80;;;;;;;30.86;31.61;100631.16;5060441;28;20469;-82
2021/06/11 07:37:59;;;;;;;13.27;12.07;;;;;;;31.50;30.66;100636.50;5062174;28;20509;-83
2021/06/11 07:40:26;;;;;;;11.87;10.70;;;;;;;32.24;29.77;100644.72;5049786;28;20479;-83
2021/06/11 07:42:53;;;;;;;12.03;11.10;;;;;;;32.30;29.81;100645.53;5051191;28;20446;-81
2021/06/11 07:45:19;;;;;;;12.40;11.23;;;;;;;32.36;29.43;100644.41;5060581;28;20453;-82
2021/06/11 07:47:45;;;;;;;11.10;10.03;;;;;;;33.18;28.32;100647.13;5056435;28;20489;-83
2021/06/11 07:50:12;;;;;;;10.80;9.80;;;;;;;35.31;25.41;100649.69;5061252;28;20454;-82
2021/06/11 07:52:38;;;;;;;12.70;9.70;;;;;;;35.56;25.05;100648.53;5061824;28;20532;-82
2021/06/11 07:55:06;;;;;;;10.30;9.37;;;;;;;36.07;24.52;100655.31;5059899;28;20460;-83
2021/06/11 07:57:32;;;;;;;12.80;11.43;;;;;;;33.43;26.91;100656.44;5063838;28;20449;-83
2021/06/11 08:00:01;;;;;;;10.87;9.87;;;;;;;34.77;25.46;100657.19;5067027;28;20452;-82
2021/06/11 08:02:27;;;;;;;11.87;10.73;;;;;;;34.66;25.92;100663.97;5069125;28;20465;-81
2021/06/11 08:04:53;;;;;;;10.90;9.83;;;;;;;36.53;23.45;100653.78;5061433;28;21073;-81
2021/06/11 08:07:19;;;;;;;12.67;11.40;;;;;;;35.52;24.36;100654.97;5067499;28;20481;-82
2021/06/11 08:09:45;;;;;;;11.40;10.20;;;;;;;36.17;23.90;100660.72;5065142;28;20453;-83
2021/06/11 08:12:13;;;;;;;14.97;10.67;;;;;;;35.44;25.74;100662.84;5072330;28;20473;-83
2021/06/11 08:14:39;;;;;;;11.93;10.83;;;;;;;35.53;24.90;100657.47;5058281;28;20477;-82
2021/06/11 08:17:07;;;;;;;11.67;10.67;;;;;;;35.48;24.89;100659.50;5058110;28;20993;-84
2021/06/11 08:19:33;;;;;;;13.67;10.77;;;;;;;35.61;24.75;100659.56;5061682;28;20592;-83
2021/06/11 08:21:59;;;;;;;11.00;10.00;;;;;;;35.66;24.21;100663.41;5060575;28;20465;-84
2021/06/11 08:24:25;;;;;;;11.90;10.37;;;;;;;35.57;24.81;100669.66;5060098;28;20953;-83
2021/06/11 08:26:52;;;;;;;13.70;11.13;;;;;;;34.19;26.47;100669.06;5061098;28;20548;-83
2021/06/11 08:29:19;;;;;;;12.47;11.27;;;;;;;35.72;24.75;100673.38;5061295;28;20453;-82
2021/06/11 08:31:45;;;;;;;11.47;10.43;;;;;;;34.80;26.18;100666.91;5059884;28;20469;-84
2021/06/11 08:34:13;;;;;;;12.40;11.23;;;;;;;34.89;26.09;100677.09;5065691;28;20445;-84
2021/06/11 08:36:39;;;;;;;11.50;10.57;;;;;;;34.83;26.18;100672.72;5070473;28;20465;-84
2021/06/11 08:39:05;;;;;;;11.90;10.70;;;;;;;35.04;25.58;100675.28;5076650;28;20733;-83
2021/06/11 08:41:31;;;;;;;11.07;10.03;;;;;;;34.88;26.00;100685.72;5059761;28;21972;-83
2021/06/11 08:43:59;;;;;;;11.83;10.50;;;;;;;34.77;26.09;100678.59;5061284;28;20441;-84
2021/06/11 08:46:26;;;;;;;12.47;11.27;;;;;;;35.13;26.05;100676.28;5070550;28;20472;-82
2021/06/11 08:48:53;;;;;;;10.53;9.43;;;;;;;35.72;25.18;100676.97;5065359;28;20445;-83
2021/06/11 08:51:20;;;;;;;12.57;9.37;;;;;;;37.08;24.02;100681.75;5076340;28;20511;-84
2021/06/11 08:53:46;;;;;;;13.70;9.83;;;;;;;36.86;24.68;100678.84;5061222;28;20449;-83
2021/06/11 08:56:13;;;;;;;11.63;10.43;;;;;;;35.25;26.07;100679.50;5059292;28;20469;-82
2021/06/11 08:58:39;;;;;;;10.70;9.63;;;;;;;35.11;26.65;100681.31;5061508;28;21121;-83
2021/06/11 09:01:05;;;;;;;10.90;9.87;;;;;;;32.92;29.97;100682.34;5060574;28;20564;-83
2021/06/11 09:03:42;;;;;;;11.60;10.40;;;;;;;31.70;32.40;100676.34;5059823;28;20532;-84
2021/06/11 09:06:12;;;;;;;14.10;11.30;;;;;;;31.87;32.26;100679.75;5050565;28;20557;-83
2021/06/11 09:08:40;;;;;;;13.20;11.80;;;;;;;31.86;31.99;100674.50;5060526;28;20485;-83
2021/06/11 09:11:12;;;;;;;13.17;11.80;;;;;;;32.83;30.41;100671.81;5059302;28;20503;-84
2021/06/11 09:13:41;;;;;;;15.10;12.33;;;;;;;34.74;27.13;100673.63;5061337;28;20518;-83
2021/06/11 09:16:10;;;;;;;13.07;11.77;;;;;;;33.12;29.79;100673.94;5058379;28;20465;-84
2021/06/11 09:18:44;;;;;;;10.50;9.40;;;;;;;33.43;29.51;100678.59;5059097;28;20485;-82
2021/06/11 09:21:34;;;;;;;12.83;11.53;;;;;;;34.41;28.57;100688.06;5076015;28;20501;-82
2021/06/11 09:24:17;;;;;;;12.63;10.60;;;;;;;34.00;28.01;100679.16;5046607;28;20445;-84
2021/06/11 09:26:44;;;;;;;10.27;9.17;;;;;;;32.83;29.99;100682.91;5060043;28;20507;-83
2021/06/11 09:29:20;;;;;;;13.27;9.20;;;;;;;32.78;31.21;100687.63;5060988;28;20487;-83
2021/06/11 09:31:46;;;;;;;11.47;8.57;;;;;;;32.96;30.70;100683.44;5044326;28;20469;-84
2021/06/11 09:34:20;;;;;;;9.90;8.77;;;;;;;33.66;30.00;100688.19;5060132;28;21207;-84
2021/06/11 09:37:01;;;;;;;8.50;6.80;;;;;;;33.72;28.67;100685.16;5072822;28;20472;-84
2021/06/11 09:39:47;;;;;;;9.03;8.13;;;;;;;33.62;29.30;100689.88;5060612;28;20461;-83
2021/06/11 09:42:14;;;;;;;8.80;6.90;;;;;;;35.12;27.13;100679.34;5065145;28;20477;-83
2021/06/11 09:44:41;;;;;;;12.40;7.20;;;;;;;35.68;26.51;100692.59;5059988;28;20556;-83
2021/06/11 09:47:08;;;;;;;9.33;6.47;;;;;;;33.22;29.13;100698.06;5073992;28;20882;-82
2021/06/11 09:49:42;;;;;;;7.87;6.70;;;;;;;31.09;33.22;100687.94;5060014;28;20485;-83
2021/06/11 09:52:09;;;;;;;7.60;6.80;;;;;;;31.24;33.38;100690.78;5058553;28;20487;-83
2021/06/11 09:54:36;;;;;;;7.63;5.73;;;;;;;31.37;34.82;100686.72;5057937;28;20549;-84
2021/06/11 09:57:20;;;;;;;9.33;8.53;;;;;;;30.91;34.15;100687.25;5059692;28;20465;-83
2021/06/11 09:59:47;;;;;;;8.77;7.67;;;;;;;32.18;31.78;100685.34;5060002;28;20471;-82
2021/06/11 10:02:14;;;;;;;9.43;7.90;;;;;;;33.38;29.54;100694.16;5058330;28;20473;-83
2021/06/11 10:04:42;;;;;;;10.20;7.30;;;;;;;33.89;28.63;100690.34;5059878;28;20488;-83
2021/06/11 10:07:10;;;;;;;7.20;6.53;;;;;;;33.58;29.08;100692.41;5059415;28;20554;-83
2021/06/11 10:09:36;;;;;;;7.30;6.37;;;;;;;33.10;29.53;100678.13;5059616;28;20441;-82
2021/06/11 10:12:03;;;;;;;7.20;6.43;;;;;;;33.07;29.84;100675.91;5066728;28;20503;-83
2021/06/11 10:14:31;;;;;;;6.63;5.90;;;;;;;33.56;28.37;100686.31;5069353;28;20449;-82
2021/06/11 10:16:57;;;;;;;7.43;5.97;;;;;;;34.60;27.43;100677.06;5058775;28;20470;-83
2021/06/11 10:19:24;;;;;;;7.67;6.93;;;;;;;32.30;31.03;100684.28;5054860;28;20465;-83
2021/06/11 10:21:51;;;;;;;6.43;5.83;;;;;;;32.84;31.09;100673.47;5057782;28;20465;-84
2021/06/11 10:24:19;;;;;;;8.23;7.00;;;;;;;32.99;30.95;100674.56;5057652;28;20441;-83
2021/06/11 10:26:46;;;;;;;8.23;7.43;;;;;;;32.76;30.89;100664.88;5059583;28;20473;-83
2021/06/11 10:29:13;;;;;;;9.03;7.27;;;;;;;33.96;28.92;100676.16;5079649;28;20448;-83
2021/06/11 10:31:41;;;;;;;8.90;7.70;;;;;;;32.70;30.80;100671.56;5062186;28;20469;-83
2021/06/11 10:34:07;;;;;;;11.30;7.40;;;;;;;33.24;30.59;100664.53;5058955;28;20525;-83
2021/06/11 10:36:37;;;;;;;8.73;7.27;;;;;;;33.74;30.63;100674.59;5063853;28;20476;-84
2021/06/11 10:39:25;;;;;;;8.43;7.70;;;;;;;32.64;30.19;100660.50;5055379;28;20917;-83
2021/06/11 10:42:07;;;;;;;6.10;5.50;;;;;;;33.12;30.14;100654.56;5053635;28;20473;-83
2021/06/11 10:44:45;;;;;;;9.23;5.70;;;;;;;31.50;32.31;100657.78;5061588;28;20457;-84
2021/06/11 10:47:26;;;;;;;6.77;5.27;;;;;;;30.36;33.81;100660.88;5059943;28;20879;-81
2021/06/11 10:50:13;;;;;;;7.53;5.57;;;;;;;30.44;34.74;100654.88;5062822;28;20457;-83
2021/06/11 10:52:43;;;;;;;7.40;6.30;;;;;;;29.68;35.69;100656.56;5054245;28;20487;-84
2021/06/11 10:55:44;;;;;;;6.77;5.97;;;;;;;30.22;34.87;100652.16;5056042;28;20458;-83
2021/06/11 10:58:27;;;;;;;9.53;6.47;;;;;;;30.21;34.90;100654.09;5060112;28;20441;-84
2021/06/11 11:00:53;;;;;;;7.30;6.60;;;;;;;31.92;32.49;100645.72;5061777;28;20480;-82
2021/06/11 11:03:31;;;;;;;7.37;6.33;;;;;;;33.17;31.12;100656.53;5078084;28;20487;-83
2021/06/11 11:05:58;;;;;;;7.00;6.30;;;;;;;31.30;33.59;100648.28;5082628;28;20920;-83
2021/06/11 11:08:51;;;;;;;7.43;6.63;;;;;;;32.07;32.84;100654.09;5090389;28;20491;-84
2021/06/11 11:11:32;;;;;;;7.10;6.40;;;;;;;31.25;33.66;100645.50;5081226;28;20745;-84
2021/06/11 11:13:59;;;;;;;7.30;6.37;;;;;;;30.17;35.43;100650.22;5082601;28;20680;-81
2021/06/11 11:16:26;;;;;;;8.17;6.03;;;;;;;30.43;34.97;100639.41;5082394;28;20469;-83
2021/06/11 11:18:54;;;;;;;9.10;6.47;;;;;;;30.70;35.54;100647.63;5082154;28;20452;-83
2021/06/11 11:21:28;;;;;;;6.90;5.73;;;;;;;30.95;35.25;100635.09;5082170;28;20476;-83
2021/06/11 11:23:57;;;;;;;7.07;5.80;;;;;;;30.44;35.65;100630.06;5082147;28;20444;-83